Time;durP1;ratioP1;P1;durP2;ratioP2;P2;SDS_P1;SDS_P2;PMS_P1;PMS_P2;Temp;Humidity;BMP_temperature;BMP_pressure;BME280_temperature;BME280_humidity;BME280_pressure;Samples;Min_cycle;Max_cycle;Signal;HPM_P1;HPM_P2
2022/11/03 00:02:08;;;;;;;16.88;5.47;;;6.30;99.90;;;5.66;100.00;97706.66;4962038;28;20555;-72
2022/11/03 00:04:35;;;;;;;16.55;6.35;;;6.30;99.90;;;5.72;100.00;97694.53;4964165;28;20149;-72
2022/11/03 00:07:02;;;;;;;17.77;6.32;;;6.30;99.90;;;5.59;100.00;97699.13;4961930;28;20058;-72
2022/11/03 00:09:31;;;;;;;16.48;6.20;;;6.30;99.90;;;5.69;100.00;97692.88;4972054;28;20076;-72
2022/11/03 00:11:58;;;;;;;16.30;6.15;;;6.30;99.90;;;5.71;100.00;97695.44;4963080;28;20050;-71
2022/11/03 00:14:24;;;;;;;17.60;7.40;;;6.30;99.90;;;5.70;100.00;97694.56;4971318;28;20062;-70
2022/11/03 00:16:51;;;;;;;16.58;6.15;;;6.30;99.90;;;5.72;100.00;97697.09;4963638;28;20055;-71
2022/11/03 00:19:18;;;;;;;15.40;6.45;;;6.30;99.90;;;5.75;100.00;97697.06;4961720;28;20077;-71
2022/11/03 00:21:45;;;;;;;19.05;7.07;;;6.30;99.90;;;5.53;100.00;97688.94;4971633;28;20062;-72
2022/11/03 00:24:12;;;;;;;21.73;7.95;;;6.20;99.90;;;5.25;100.00;97697.22;4961596;28;20054;-71
2022/11/03 00:26:39;;;;;;;14.75;6.32;;;6.20;99.90;;;5.39;100.00;97690.06;4972796;28;20042;-73
2022/11/03 00:29:10;;;;;;;13.55;6.10;;;6.20;99.90;;;5.48;100.00;97691.59;4961227;28;20077;-71
2022/11/03 00:31:39;;;;;;;15.38;6.45;;;6.20;99.90;;;5.49;100.00;97692.44;4971390;28;20047;-71
2022/11/03 00:34:07;;;;;;;17.50;7.40;;;6.20;99.90;;;5.40;100.00;97694.31;4963786;28;20162;-72
2022/11/03 00:36:41;;;;;;;17.55;7.28;;;6.20;99.90;;;5.50;100.00;97683.84;4961046;28;20059;-72
2022/11/03 00:39:08;;;;;;;;;;;6.20;99.90;;;5.42;100.00;97679.69;4975676;28;20055;-71
2022/11/03 00:41:35;;;;;;;24.58;8.75;;;6.10;99.90;;;5.38;100.00;97679.78;4975794;28;19926;-72
2022/11/03 00:44:02;;;;;;;16.60;6.93;;;6.10;99.90;;;5.38;100.00;97675.50;4959559;28;20057;-71
2022/11/03 00:46:33;;;;;;;17.58;7.03;;;6.10;99.90;;;5.30;100.00;97666.25;4960390;28;20051;-72
2022/11/03 00:49:01;;;;;;;17.77;6.28;;;6.00;99.90;;;5.46;100.00;97662.47;4962657;28;20105;-71
2022/11/03 00:51:29;;;;;;;17.73;6.63;;;6.00;99.90;;;5.48;100.00;97662.44;4963312;28;20059;-71
2022/11/03 00:53:59;;;;;;;18.88;6.40;;;6.10;99.90;;;5.41;100.00;97659.16;4965542;28;20054;-73
2022/11/03 00:56:31;;;;;;;14.88;6.38;;;6.10;99.90;;;5.47;100.00;97655.59;4983190;28;20101;-72
2022/11/03 00:58:59;;;;;;;19.43;7.23;;;6.10;99.90;;;5.36;100.00;97658.38;4969685;28;20085;-72
2022/11/03 01:01:33;;;;;;;26.20;10.23;;;6.00;99.90;;;5.00;100.00;97653.94;4969506;28;20338;-71
2022/11/03 01:06:55;;;;;;;24.73;8.38;;;5.90;99.90;;;5.01;100.00;97645.31;4985558;28;20057;-71
2022/11/03 01:09:29;;;;;;;22.38;7.43;;;5.80;99.90;;;5.02;100.00;97638.47;4968001;28;20145;-72
2022/11/03 01:12:15;;;;;;;20.45;8.13;;;5.70;99.90;;;4.99;100.00;97631.66;4968004;28;20081;-72
2022/11/03 01:14:51;;;;;;;19.08;6.97;;;5.70;99.90;;;5.21;100.00;97639.78;4966817;28;20689;-71
2022/11/03 01:17:22;;;;;;;14.98;6.57;;;5.70;99.90;;;5.20;100.00;97634.66;4976485;28;22057;-71
2022/11/03 01:19:49;;;;;;;17.85;6.75;;;5.70;99.90;;;5.27;100.00;97631.13;4966882;28;20054;-72
2022/11/03 01:22:17;;;;;;;17.15;6.85;;;5.70;99.90;;;5.29;100.00;97636.22;4968197;28;20066;-72
2022/11/03 01:24:45;;;;;;;17.08;6.57;;;5.80;99.90;;;5.34;100.00;97630.09;4969248;28;20070;-72
2022/11/03 01:27:18;;;;;;;13.95;5.47;;;5.80;99.90;;;5.42;100.00;97619.63;4968410;28;20123;-72
2022/11/03 01:29:46;;;;;;;16.95;6.85;;;5.80;99.90;;;5.39;100.00;97620.56;4984744;28;20073;-71
2022/11/03 01:32:13;;;;;;;20.80;7.25;;;5.80;99.90;;;5.43;100.00;97621.34;4968500;28;20046;-73
2022/11/03 01:34:40;;;;;;;15.65;6.80;;;5.80;99.90;;;5.45;100.00;97615.28;4968623;28;20060;-72
2022/11/03 01:37:07;;;;;;;15.02;5.38;;;5.80;99.90;;;5.47;100.00;97619.53;4971794;28;20096;-72
2022/11/03 01:39:34;;;;;;;15.38;6.45;;;5.80;99.90;;;5.43;100.00;97608.47;4966759;28;20051;-72
2022/11/03 01:42:01;;;;;;;16.85;6.75;;;5.80;99.90;;;5.36;100.00;97606.88;4968179;28;20129;-71
2022/11/03 01:44:34;;;;;;;13.43;6.43;;;5.80;99.90;;;5.44;100.00;97603.28;4967195;28;20055;-72
2022/11/03 01:47:24;;;;;;;15.15;6.75;;;5.90;99.90;;;5.46;100.00;97592.97;4966070;28;20552;-72
2022/11/03 01:50:16;;;;;;;15.75;6.93;;;5.90;99.90;;;5.46;100.00;97592.97;4970017;28;20409;-71
2022/11/03 01:52:52;;;;;;;16.27;6.63;;;5.90;99.90;;;5.37;100.00;97591.44;4963577;28;20731;-72
2022/11/03 01:55:27;;;;;;;22.52;7.22;;;5.90;99.90;;;5.43;100.00;97586.16;4978348;28;20078;-72
2022/11/03 01:58:16;;;;;;;21.58;6.82;;;5.90;99.90;;;5.36;100.00;97584.59;4982177;28;20439;-72
2022/11/03 02:00:46;;;;;;;16.90;6.88;;;5.90;99.90;;;5.36;100.00;97578.56;4966885;28;20060;-72
2022/11/03 02:03:14;;;;;;;16.52;6.75;;;5.90;99.90;;;5.30;100.00;97583.88;4966097;28;20049;-72
2022/11/03 02:05:44;;;;;;;14.88;6.68;;;5.90;99.90;;;5.15;100.00;97575.59;4980114;28;20047;-72
2022/11/03 02:08:31;;;;;;;14.30;6.03;;;5.90;99.90;;;5.23;100.00;97562.56;4967281;28;20059;-72
2022/11/03 02:10:58;;;;;;;16.95;7.03;;;5.90;99.90;;;5.18;100.00;97567.81;4967791;28;20050;-71
2022/11/03 02:13:26;;;;;;;17.05;6.18;;;5.90;99.90;;;5.26;100.00;97561.66;4967866;28;20533;-72
2022/11/03 02:15:57;;;;;;;16.75;6.57;;;5.90;99.90;;;5.33;100.00;97558.06;4980035;28;20058;-72
2022/11/03 02:18:31;;;;;;;21.05;7.15;;;5.90;99.90;;;5.29;100.00;97559.88;4984003;28;20038;-71
2022/11/03 02:21:27;;;;;;;16.77;6.10;;;5.90;99.90;;;5.21;100.00;97549.72;4980246;28;20054;-72
2022/11/03 02:24:04;;;;;;;14.57;5.78;;;5.90;99.90;;;5.11;100.00;97547.38;4979267;28;20055;-72
2022/11/03 02:26:31;;;;;;;13.75;5.40;;;5.80;99.90;;;5.15;100.00;97544.72;4979258;28;20047;-72
2022/11/03 02:28:58;;;;;;;14.35;5.72;;;5.80;99.90;;;5.18;100.00;97543.81;4980752;28;20053;-71
2022/11/03 02:31:42;;;;;;;15.65;6.15;;;5.80;99.90;;;5.13;100.00;97535.31;4964603;28;20489;-72
2022/11/03 02:34:50;;;;;;;12.13;5.38;;;5.80;99.90;;;5.16;100.00;97522.41;4964725;28;20042;-72
2022/11/03 02:37:22;;;;;;;14.38;5.95;;;5.80;99.90;;;5.20;100.00;97500.88;4958265;28;20485;-72
2022/11/03 02:40:02;;;;;;;15.17;6.00;;;5.80;99.90;;;5.09;100.00;97508.00;4980015;28;20042;-72
2022/11/03 02:42:30;;;;;;;13.68;5.22;;;5.80;99.90;;;5.24;100.00;97507.63;4964898;28;20329;-72
2022/11/03 02:45:01;;;;;;;13.95;5.10;;;5.80;99.90;;;5.14;100.00;97517.28;4964743;28;20054;-72
2022/11/03 02:47:30;;;;;;;14.77;5.57;;;5.80;99.90;;;5.10;100.00;97515.66;4965748;28;20680;-72
2022/11/03 02:49:57;;;;;;;12.30;5.50;;;5.80;99.90;;;5.01;100.00;97511.56;4968854;28;20059;-72
2022/11/03 02:52:44;;;;;;;15.52;5.68;;;5.80;99.90;;;5.15;100.00;97513.00;4967584;28;20712;-72
2022/11/03 02:55:18;;;;;;;12.80;5.90;;;5.80;99.90;;;5.22;100.00;97506.81;4967460;28;20054;-71
2022/11/03 02:57:53;;;;;;;15.95;5.65;;;5.80;99.90;;;5.32;100.00;97505.75;4981083;28;20499;-72
2022/11/03 03:00:20;;;;;;;12.60;5.80;;;5.80;99.90;;;5.24;100.00;97499.91;4976856;28;20070;-72
2022/11/03 03:02:58;;;;;;;14.23;5.07;;;5.80;99.90;;;5.32;100.00;97492.03;4965663;28;20061;-72
2022/11/03 03:05:29;;;;;;;10.25;4.72;;;5.90;99.90;;;5.47;100.00;97486.50;4965542;28;20059;-72
2022/11/03 03:08:03;;;;;;;13.85;5.60;;;6.00;99.90;;;5.43;100.00;97482.34;4967080;28;20484;-71
2022/11/03 03:10:36;;;;;;;13.93;4.75;;;6.00;99.90;;;5.45;100.00;97481.44;4980955;28;20066;-72
2022/11/03 03:13:06;;;;;;;12.45;5.07;;;6.00;99.90;;;5.42;100.00;97472.91;4979380;28;20057;-72
2022/11/03 03:15:45;;;;;;;14.95;5.22;;;6.10;99.90;;;5.50;100.00;97459.88;4961948;28;20126;-72
2022/11/03 03:18:23;;;;;;;17.67;5.38;;;6.00;99.90;;;5.50;100.00;97472.75;4978474;28;20354;-72
2022/11/03 03:20:58;;;;;;;11.13;4.93;;;6.10;99.90;;;5.54;100.00;97471.78;4978670;28;21743;-72
2022/11/03 03:23:31;;;;;;;13.32;4.68;;;6.10;99.90;;;5.50;100.00;97465.03;4981268;28;20074;-71
2022/11/03 03:26:07;;;;;;;12.77;5.27;;;6.10;99.90;;;5.57;100.00;97464.00;4965324;28;20542;-71
2022/11/03 03:29:25;;;;;;;13.77;5.05;;;6.20;99.90;;;5.49;100.00;97456.44;4982118;28;20485;-72
2022/11/03 03:31:59;;;;;;;11.38;4.47;;;6.20;99.90;;;5.61;100.00;97443.28;4976876;28;20146;-72
2022/11/03 03:34:28;;;;;;;11.25;4.80;;;6.20;99.90;;;5.60;100.00;97448.47;4979570;28;20051;-72
2022/11/03 03:37:04;;;;;;;11.18;4.28;;;6.20;99.90;;;5.58;100.00;97453.63;4965401;28;22252;-71
2022/11/03 03:39:35;;;;;;;8.32;3.58;;;6.20;99.90;;;5.54;100.00;97443.44;4977658;28;20047;-71
2022/11/03 03:42:05;;;;;;;12.93;3.92;;;6.20;99.90;;;5.50;100.00;97432.41;4965749;28;20059;-72
2022/11/03 03:44:33;;;;;;;14.20;4.55;;;6.20;99.90;;;5.52;100.00;97424.63;4964819;28;20061;-71
2022/11/03 03:47:07;;;;;;;9.02;4.35;;;6.20;99.90;;;5.62;100.00;97421.78;4975434;28;20058;-71
2022/11/03 03:49:34;;;;;;;9.45;3.65;;;6.20;99.90;;;5.65;100.00;97423.44;4975878;28;20047;-70
2022/11/03 03:52:02;;;;;;;13.98;4.20;;;6.10;99.90;;;5.63;100.00;97422.63;4966076;28;20038;-72
2022/11/03 03:54:29;;;;;;;11.93;4.30;;;6.20;99.90;;;5.58;100.00;97416.75;4964341;28;20046;-72
2022/11/03 03:57:04;;;;;;;12.63;4.30;;;6.10;99.90;;;5.61;100.00;97421.81;4966306;28;20074;-71
2022/11/03 03:59:31;;;;;;;12.27;4.22;;;6.10;99.90;;;5.57;100.00;97427.94;4967747;28;20065;-71
2022/11/03 04:01:58;;;;;;;14.27;4.97;;;6.10;99.90;;;5.48;100.00;97423.03;4963906;28;20089;-72
2022/11/03 04:04:25;;;;;;;13.07;4.50;;;6.10;99.90;;;5.54;100.00;97422.84;4963342;28;20071;-71
2022/11/03 04:07:45;;;;;;;10.20;3.85;;;6.10;99.90;;;5.59;100.00;97415.88;4966745;28;20080;-71
2022/11/03 04:09:39;;;;;;;10.02;3.50;;;6.10;99.90;;;5.50;100.00;97414.38;4966525;28;20070;-72
2022/11/03 04:23:15;;;;;;;16.52;5.32;;;5.90;99.90;;;4.98;100.00;97416.47;4966482;28;20049;-72
2022/11/03 04:25:49;;;;;;;12.77;5.30;;;5.90;99.90;;;4.94;100.00;97411.41;4967395;28;20554;-72
2022/11/03 04:28:16;;;;;;;18.00;5.53;;;5.80;99.90;;;4.91;100.00;97409.78;4979929;28;20449;-71
2022/11/03 04:30:43;;;;;;;9.75;4.32;;;5.70;99.90;;;4.99;100.00;97407.84;4958752;28;20061;-71
2022/11/03 04:33:17;;;;;;;16.50;5.13;;;5.70;99.90;;;5.07;100.00;97399.97;4956626;28;20054;-72
2022/11/03 04:35:45;;;;;;;12.35;5.13;;;5.70;99.90;;;5.19;100.00;97399.66;4960740;28;20050;-71
2022/11/03 04:38:15;;;;;;;10.38;4.35;;;5.80;99.90;;;5.17;100.00;97403.16;4963531;28;20075;-72
2022/11/03 04:40:45;;;;;;;9.18;3.85;;;5.80;99.90;;;5.15;100.00;97390.31;4962734;28;20184;-71
2022/11/03 04:43:20;;;;;;;11.07;4.55;;;5.80;99.90;;;5.23;100.00;97392.75;4962771;28;20074;-71
2022/11/03 04:45:48;;;;;;;17.08;5.53;;;5.90;99.90;;;5.03;100.00;97390.63;4963543;28;20046;-71
2022/11/03 04:48:21;;;;;;;13.35;4.30;;;5.90;99.90;;;5.06;100.00;97387.97;4974809;28;20046;-71
2022/11/03 04:50:53;;;;;;;11.80;4.07;;;5.80;99.90;;;5.15;100.00;97387.75;4962831;28;20043;-72
2022/11/03 04:53:21;;;;;;;15.93;4.93;;;5.80;99.90;;;5.05;100.00;97381.16;4974494;28;20071;-72
2022/11/03 04:55:53;;;;;;;11.23;4.97;;;5.80;99.90;;;4.98;100.00;97380.44;4960560;28;20047;-71
2022/11/03 04:58:21;;;;;;;17.67;5.07;;;5.90;99.90;;;5.05;100.00;97378.59;4973205;28;20065;-71
2022/11/03 05:01:00;;;;;;;12.68;4.82;;;5.80;99.90;;;5.10;100.00;97363.03;4963194;28;20065;-72
2022/11/03 05:03:35;;;;;;;19.95;5.95;;;5.80;99.90;;;5.04;100.00;97361.47;4960848;28;20069;-73
2022/11/03 05:06:28;;;;;;;13.70;5.65;;;5.80;99.90;;;5.05;100.00;97347.72;4977367;28;20043;-71
2022/11/03 05:08:58;;;;;;;;;;;5.90;99.90;;;5.19;100.00;97340.50;4962561;28;20081;-71
2022/11/03 05:11:24;;;;;;;13.50;5.05;;;5.80;99.90;;;5.07;100.00;97339.97;4978705;28;19998;-72
2022/11/03 05:13:51;;;;;;;14.98;6.32;;;5.90;99.90;;;5.05;100.00;97334.84;4961267;28;20042;-72
2022/11/03 05:16:19;;;;;;;15.38;5.53;;;5.90;99.90;;;5.15;100.00;97328.56;4961038;28;20055;-72
2022/11/03 05:18:48;;;;;;;16.40;5.53;;;5.90;99.90;;;5.30;100.00;97314.50;4959817;28;20066;-71
2022/11/03 05:21:20;;;;;;;11.75;5.45;;;5.90;99.90;;;5.43;100.00;97305.56;4956567;28;20429;-72
2022/11/03 05:24:02;;;;;;;16.02;6.57;;;6.00;99.90;;;5.14;100.00;97315.78;4978004;28;20421;-71
2022/11/03 05:26:33;;;;;;;13.57;5.70;;;6.00;99.90;;;5.35;100.00;97314.38;4977105;28;20069;-71
2022/11/03 05:29:08;;;;;;;15.73;5.88;;;6.00;99.90;;;5.42;100.00;97313.31;4959919;28;20055;-72
2022/11/03 05:31:36;;;;;;;16.27;5.13;;;6.00;99.90;;;5.51;100.00;97307.09;4962499;28;20050;-72
2022/11/03 05:34:35;;;;;;;15.07;5.32;;;6.10;99.90;;;5.61;100.00;97293.94;4961539;28;20059;-72
2022/11/03 05:37:05;;;;;;;23.58;6.40;;;6.20;99.90;;;5.64;100.00;97288.69;4961070;28;20054;-72
2022/11/03 05:39:39;;;;;;;21.55;7.68;;;6.30;99.90;;;5.54;100.00;97288.97;4963125;28;20413;-72
2022/11/03 05:42:21;;;;;;;19.65;6.78;;;6.30;99.90;;;5.74;100.00;97275.56;4962638;28;20070;-71
2022/11/03 05:44:50;;;;;;;15.90;6.38;;;6.40;99.90;;;5.77;100.00;97270.31;4961523;28;20051;-72
2022/11/03 05:47:33;;;;;;;21.30;7.18;;;6.40;99.90;;;5.56;100.00;97271.75;4962946;28;20406;-72
2022/11/03 05:50:32;;;;;;;15.73;6.18;;;6.40;99.90;;;5.60;100.00;97273.38;4961644;28;20084;-70
2022/11/03 05:53:27;;;;;;;11.63;5.10;;;6.40;99.90;;;5.78;100.00;97270.28;4979132;28;20058;-72
2022/11/03 05:55:58;;;;;;;14.43;4.88;;;6.40;99.90;;;5.83;100.00;97276.13;4965842;28;20046;-72
2022/11/03 05:58:31;;;;;;;14.73;5.03;;;6.50;99.90;;;5.93;100.00;97266.44;4980318;28;20135;-71
2022/11/03 06:01:00;;;;;;;19.48;6.75;;;6.50;99.90;;;5.89;100.00;97272.56;4964993;28;20051;-72
2022/11/03 06:03:29;;;;;;;10.65;4.30;;;6.60;99.90;;;5.93;100.00;97261.28;4966680;28;20054;-72
2022/11/03 06:05:59;;;;;;;20.25;7.20;;;6.60;99.90;;;5.93;100.00;97271.59;4965708;28;20065;-72
2022/11/03 06:08:32;;;;;;;15.63;6.28;;;6.60;99.90;;;5.99;100.00;97252.56;4966435;28;20095;-72
2022/11/03 06:11:02;;;;;;;15.23;5.43;;;6.60;99.90;;;6.05;100.00;97250.63;4979432;28;20055;-72
2022/11/03 06:13:33;;;;;;;10.38;4.30;;;6.70;99.90;;;6.16;100.00;97247.75;4968072;28;20046;-71
2022/11/03 06:16:40;;;;;;;19.67;6.72;;;6.70;99.90;;;6.20;100.00;97244.19;4966138;28;20051;-72
2022/11/03 06:19:28;;;;;;;16.65;6.88;;;6.70;99.90;;;6.16;100.00;97237.44;4968348;28;20058;-71
2022/11/03 06:22:03;;;;;;;15.05;6.13;;;6.80;99.90;;;6.19;100.00;97227.03;4962544;28;20516;-72
2022/11/03 06:24:31;;;;;;;17.67;7.00;;;6.80;99.90;;;6.11;100.00;97223.00;4982158;28;20051;-73
2022/11/03 06:26:58;;;;;;;17.80;7.93;;;6.80;99.90;;;5.99;100.00;97230.19;4967161;28;20050;-72
2022/11/03 06:29:25;;;;;;;19.30;7.93;;;6.70;99.90;;;6.00;100.00;97220.75;4983034;28;20043;-72
2022/11/03 06:31:56;;;;;;;13.02;6.47;;;6.70;99.90;;;6.02;100.00;97222.41;4969363;28;20058;-72
2022/11/03 06:34:58;;;;;;;17.33;7.15;;;6.70;99.90;;;6.16;100.00;97213.38;4967298;28;20137;-71
2022/11/03 06:37:30;;;;;;;18.65;6.82;;;6.80;99.90;;;6.25;100.00;97216.53;4967349;28;20047;-72
2022/11/03 06:40:01;;;;;;;18.00;8.00;;;6.80;99.90;;;6.28;100.00;97220.75;4967831;28;20485;-71
2022/11/03 06:42:32;;;;;;;17.95;8.43;;;6.90;99.90;;;6.24;100.00;97217.41;4965844;28;20684;-72
2022/11/03 06:45:02;;;;;;;20.27;9.52;;;6.90;99.90;;;6.32;100.00;97216.31;4968803;28;20066;-72
2022/11/03 06:47:29;;;;;;;24.92;12.55;;;6.90;99.90;;;6.16;100.00;97218.53;4965259;28;20458;-72
2022/11/03 06:49:58;;;;;;;35.00;15.32;;;6.90;99.90;;;6.18;100.00;97216.75;4977997;28;20066;-72
2022/11/03 06:52:38;;;;;;;22.38;10.88;;;6.90;99.90;;;6.35;100.00;97211.09;4981924;28;20051;-72
2022/11/03 06:55:12;;;;;;;17.88;10.23;;;7.00;99.90;;;6.44;100.00;97211.63;4980016;28;20055;-71
2022/11/03 06:57:45;;;;;;;19.73;9.55;;;7.10;99.90;;;6.61;100.00;97208.50;4965111;28;20492;-72
2022/11/03 07:00:27;;;;;;;19.17;10.23;;;7.10;99.90;;;6.67;100.00;97210.06;4966927;28;20061;-72
2022/11/03 07:03:10;;;;;;;21.15;9.70;;;7.20;99.90;;;6.65;100.00;97193.78;4962060;28;20046;-71
2022/11/03 07:05:37;;;;;;;23.42;9.48;;;7.30;99.90;;;6.63;100.00;97186.09;4958640;28;20055;-73
2022/11/03 07:08:29;;;;;;;21.60;10.25;;;7.30;99.90;;;6.60;100.00;97186.19;4982267;28;20480;-72
2022/11/03 07:11:03;;;;;;;28.88;12.20;;;7.40;99.90;;;6.56;100.00;97181.19;4967290;28;20077;-72
2022/11/03 07:13:33;;;;;;;29.77;14.95;;;7.40;99.90;;;6.46;100.00;97181.50;4982637;28;20047;-73
2022/11/03 07:16:00;;;;;;;28.58;11.63;;;7.40;99.90;;;6.54;100.00;97164.94;4966642;28;20061;-72
2022/11/03 07:18:43;;;;;;;17.83;8.75;;;7.40;99.90;;;6.63;100.00;97159.47;4967686;28;20047;-72
2022/11/03 07:21:31;;;;;;;20.57;8.13;;;7.40;99.90;;;6.67;100.00;97153.31;4966748;28;20061;-72
2022/11/03 07:24:01;;;;;;;22.73;9.43;;;7.50;99.90;;;6.60;100.00;97146.69;4968552;28;20053;-72
2022/11/03 07:26:29;;;;;;;15.57;7.43;;;7.60;99.90;;;6.68;100.00;97149.81;4967435;28;20058;-72
2022/11/03 07:28:55;;;;;;;25.73;9.98;;;7.60;99.90;;;6.59;100.00;97160.47;4967970;28;20057;-72
2022/11/03 07:31:25;;;;;;;18.20;9.32;;;7.70;99.90;;;6.72;100.00;97148.84;4968139;28;20049;-72
2022/11/03 07:33:57;;;;;;;15.68;7.72;;;7.70;99.90;;;6.86;100.00;97140.63;4968152;28;20363;-71
2022/11/03 07:36:28;;;;;;;20.38;7.95;;;7.70;99.90;;;7.20;100.00;97123.94;4966341;28;20389;-72
2022/11/03 07:38:58;;;;;;;13.20;5.63;;;7.90;99.90;;;7.47;100.00;97128.09;4967372;28;20094;-71
2022/11/03 07:41:30;;;;;;;14.82;5.15;;;8.00;99.90;;;7.54;100.00;97121.78;4981774;28;20087;-72
2022/11/03 07:44:01;;;;;;;19.02;5.90;;;8.20;99.90;;;7.42;100.00;97122.25;4966799;28;20058;-72
2022/11/03 07:46:28;;;;;;;17.67;5.40;;;8.30;99.90;;;7.62;100.00;97123.22;4966885;28;20046;-73
2022/11/03 07:49:03;;;;;;;12.07;5.25;;;8.40;99.90;;;7.71;100.00;97120.34;4968392;28;20062;-72
2022/11/03 07:51:33;;;;;;;15.88;5.10;;;8.50;99.90;;;7.90;100.00;97120.44;4981651;28;20073;-72
2022/11/03 07:54:23;;;;;;;14.75;4.97;;;8.60;99.90;;;8.11;100.00;97116.16;4965820;28;20397;-72
2022/11/03 07:57:03;;;;;;;12.85;4.78;;;8.70;99.90;;;8.14;100.00;97114.31;4967854;28;20058;-72
2022/11/03 07:59:38;;;;;;;14.00;4.35;;;8.80;99.90;;;8.23;100.00;97114.81;4967559;28;20389;-72
2022/11/03 08:02:42;;;;;;;13.82;4.55;;;9.00;99.90;;;8.46;100.00;97109.59;4965483;28;20051;-72
2022/11/03 08:05:09;;;;;;;12.75;3.95;;;9.20;99.90;;;8.56;100.00;97103.13;4958525;28;20082;-72
2022/11/03 08:07:36;;;;;;;11.77;4.60;;;9.30;99.90;;;8.71;100.00;97093.88;4965948;28;20062;-72
2022/11/03 08:10:03;;;;;;;11.10;3.90;;;9.40;99.90;;;8.75;100.00;97095.41;4982064;28;20054;-72
2022/11/03 08:12:30;;;;;;;12.30;4.20;;;9.50;99.90;;;9.06;100.00;97086.31;4966558;28;20055;-71
2022/11/03 08:14:57;;;;;;;15.95;4.43;;;9.70;99.90;;;9.04;100.00;97095.06;4967125;28;20047;-72
2022/11/03 08:17:24;;;;;;;16.15;4.60;;;9.90;99.90;;;9.20;100.00;97083.13;4965748;28;20055;-72
2022/11/03 08:19:51;;;;;;;13.07;3.63;;;10.10;99.90;;;9.54;100.00;97077.25;4967186;28;20051;-72
2022/11/03 08:22:18;;;;;;;12.32;3.38;;;10.20;99.90;;;9.54;100.00;97087.59;4966085;28;20055;-72
2022/11/03 08:24:45;;;;;;;11.02;3.40;;;10.30;99.90;;;9.59;100.00;97095.16;4967567;28;20054;-72
2022/11/03 08:27:12;;;;;;;11.80;3.47;;;10.40;99.90;;;9.75;100.00;97101.31;4982752;28;20054;-72
2022/11/03 08:29:38;;;;;;;16.27;4.10;;;10.50;99.90;;;9.65;100.00;97102.66;4967181;28;20098;-72
2022/11/03 08:32:05;;;;;;;10.80;3.78;;;10.60;99.90;;;9.82;100.00;97115.66;4965648;28;20508;-73
2022/11/03 08:34:32;;;;;;;15.50;3.72;;;10.60;99.90;;;9.81;100.00;97106.22;4965677;28;20057;-73
2022/11/03 08:36:59;;;;;;;11.40;3.30;;;10.60;99.90;;;9.92;100.00;97110.03;4966293;28;20422;-72
2022/11/03 08:39:26;;;;;;;11.80;2.50;;;10.70;99.90;;;9.92;100.00;97100.53;4966977;28;20043;-72
2022/11/03 08:41:53;;;;;;;11.48;2.88;;;10.80;99.90;;;10.08;100.00;97102.34;4966673;28;20521;-72
2022/11/03 08:44:19;;;;;;;10.35;3.28;;;10.90;99.90;;;10.15;100.00;97093.38;4967361;28;20050;-72
2022/11/03 08:46:46;;;;;;;10.30;3.15;;;10.90;99.90;;;10.27;100.00;97097.97;4967379;28;20055;-72
2022/11/03 08:49:13;;;;;;;10.30;2.97;;;11.00;99.90;;;10.19;100.00;97097.50;4967079;28;20046;-72
2022/11/03 08:51:40;;;;;;;17.42;3.05;;;11.00;99.90;;;10.31;100.00;97094.34;4967394;28;20058;-72
2022/11/03 08:54:10;;;;;;;8.38;2.95;;;11.10;99.90;;;10.30;100.00;97084.03;4965119;28;20061;-72
2022/11/03 08:56:37;;;;;;;9.02;2.70;;;11.10;99.90;;;10.33;100.00;97092.53;4967170;28;20102;-73
2022/11/03 08:59:04;;;;;;;9.27;2.70;;;11.10;99.90;;;10.42;100.00;97070.44;4963809;28;20046;-72
2022/11/03 09:01:31;;;;;;;11.05;3.08;;;11.00;99.90;;;10.28;100.00;97078.88;4966157;28;20047;-72
2022/11/03 09:03:58;;;;;;;10.00;2.97;;;11.00;99.90;;;10.23;100.00;97086.91;4965795;28;20129;-72
2022/11/03 09:06:25;;;;;;;12.30;2.70;;;11.10;99.90;;;10.37;100.00;97073.28;4964440;28;20082;-71
2022/11/03 09:08:52;;;;;;;12.98;2.90;;;11.10;99.90;;;10.43;100.00;97077.34;4965276;28;20043;-72
2022/11/03 09:11:39;;;;;;;10.32;3.03;;;11.20;99.90;;;10.32;100.00;97074.44;4966305;28;20058;-72
2022/11/03 09:14:06;;;;;;;8.93;3.13;;;11.20;99.90;;;10.36;100.00;97065.59;4965885;28;20055;-73
2022/11/03 09:16:33;;;;;;;8.40;2.95;;;11.30;99.90;;;10.56;100.00;97064.56;4965853;28;20058;-73
2022/11/03 09:18:59;;;;;;;8.32;2.60;;;11.30;99.90;;;10.55;100.00;97057.72;4965574;28;20497;-71
2022/11/03 09:21:26;;;;;;;9.27;2.67;;;11.40;99.90;;;10.48;100.00;97054.59;4966254;28;20129;-72
2022/11/03 09:23:53;;;;;;;10.75;3.33;;;11.50;99.90;;;10.60;100.00;97040.97;4965247;28;20058;-72
2022/11/03 09:26:21;;;;;;;11.68;3.75;;;11.60;99.90;;;10.55;100.00;97035.19;4969604;28;20066;-71
2022/11/03 09:28:48;;;;;;;9.20;2.88;;;11.80;99.90;;;10.67;100.00;97021.59;4969345;28;20057;-72
2022/11/03 09:31:15;;;;;;;10.60;2.83;;;11.90;99.90;;;10.87;100.00;97007.56;4966193;28;20061;-71
2022/11/03 09:33:42;;;;;;;9.55;3.22;;;12.00;99.90;;;11.12;100.00;97019.22;4966109;28;20054;-72
2022/11/03 09:36:09;;;;;;;13.20;3.00;;;12.20;99.90;;;11.29;100.00;97031.34;4969473;28;20065;-71
2022/11/03 09:38:36;;;;;;;8.00;3.10;;;12.30;99.90;;;11.44;100.00;97024.44;4964377;28;20055;-72
2022/11/03 09:41:04;;;;;;;9.68;2.85;;;12.40;99.90;;;11.65;100.00;97025.84;4968943;28;20059;-72
2022/11/03 09:43:52;;;;;;;8.32;2.80;;;12.60;99.90;;;11.60;100.00;97032.25;4965435;28;20066;-72
2022/11/03 09:46:19;;;;;;;8.10;2.75;;;12.80;99.90;;;11.68;100.00;97030.06;4983325;28;20051;-72
2022/11/03 09:48:46;;;;;;;9.05;2.90;;;12.90;99.90;;;11.92;100.00;97025.25;4965132;28;20047;-72
2022/11/03 09:51:19;;;;;;;8.90;3.00;;;13.00;99.90;;;12.08;100.00;97020.03;4965728;28;20666;-71
2022/11/03 09:53:47;;;;;;;9.80;2.45;;;13.20;99.90;;;12.13;100.00;97028.38;4967990;28;20062;-73
2022/11/03 09:56:18;;;;;;;9.70;2.60;;;13.30;99.90;;;12.23;100.00;97029.56;4965654;28;20069;-72
2022/11/03 09:58:45;;;;;;;8.95;2.70;;;13.40;99.90;;;11.89;100.00;97034.06;4967778;28;20536;-71
2022/11/03 10:01:20;;;;;;;8.77;2.55;;;13.30;99.90;;;12.21;100.00;97031.41;4965231;28;20659;-72
2022/11/03 10:03:47;;;;;;;7.68;2.13;;;13.10;99.90;;;12.38;100.00;97029.56;4966298;28;20043;-72
2022/11/03 10:06:15;;;;;;;10.38;3.03;;;13.20;99.90;;;12.18;100.00;97018.56;4982163;28;20167;-73
2022/11/03 10:08:45;;;;;;;11.05;3.17;;;13.30;99.90;;;12.22;100.00;97008.81;4969232;28;20407;-73
2022/11/03 10:11:13;;;;;;;9.18;2.70;;;13.30;99.90;;;12.35;100.00;97008.00;4982149;28;20046;-72
2022/11/03 10:13:52;;;;;;;9.75;2.55;;;13.40;99.90;;;12.18;100.00;97009.91;4967551;28;20165;-72
2022/11/03 10:16:22;;;;;;;10.07;2.72;;;13.40;99.90;;;12.23;100.00;97002.69;4967571;28;20054;-72
2022/11/03 10:18:50;;;;;;;7.30;2.35;;;13.50;99.90;;;12.41;100.00;97011.19;4966160;28;20051;-72
2022/11/03 10:21:36;;;;;;;6.82;2.22;;;13.50;99.90;;;12.59;100.00;96991.00;4964409;28;20066;-72
2022/11/03 10:24:04;;;;;;;7.28;2.25;;;13.60;99.90;;;12.46;100.00;96980.53;4967539;28;20055;-72
2022/11/03 10:26:50;;;;;;;7.32;2.15;;;13.60;99.90;;;12.49;100.00;96970.75;4968939;28;20046;-72
2022/11/03 10:29:20;;;;;;;7.88;2.05;;;13.60;99.90;;;12.52;100.00;96975.78;4965486;28;20058;-72
2022/11/03 10:31:57;;;;;;;6.63;2.22;;;13.60;99.90;;;12.50;100.00;96961.19;4967583;28;20047;-73
2022/11/03 10:34:38;;;;;;;9.38;2.30;;;13.60;99.90;;;12.61;100.00;96955.31;4983887;28;20717;-74
2022/11/03 10:37:15;;;;;;;6.05;1.90;;;13.60;99.90;;;12.47;100.00;96951.78;4968470;28;20492;-73
2022/11/03 10:39:46;;;;;;;7.70;2.30;;;13.60;99.90;;;12.40;100.00;96955.69;4965882;28;20051;-72
2022/11/03 10:42:25;;;;;;;8.77;2.60;;;13.60;99.90;;;12.34;100.00;96948.25;4966390;28;20058;-72
2022/11/03 10:45:19;;;;;;;9.32;2.67;;;13.60;99.90;;;12.35;100.00;96942.09;4965757;28;20186;-72
2022/11/03 10:48:01;;;;;;;8.18;1.88;;;13.50;99.90;;;12.44;100.00;96943.34;4964629;28;20157;-72
2022/11/03 10:50:28;;;;;;;7.20;1.90;;;13.40;99.90;;;12.27;100.00;96953.00;4981777;28;20133;-72
2022/11/03 10:52:56;;;;;;;9.98;2.45;;;13.30;99.90;;;12.50;100.00;96940.38;4966287;28;20058;-71
2022/11/03 10:55:24;;;;;;;8.90;2.30;;;13.30;99.90;;;12.27;100.00;96936.50;4979614;28;20050;-72